sensor_id;sensor_type;location;lat;lon;timestamp;P1;durP1;ratioP1;P2;durP2;ratioP2
21527;SDS011;10925;49.102;-0.370;2023-05-10T00:02:20;5.22;;;1.02;;
21527;SDS011;10925;49.102;-0.370;2023-05-10T00:04:46;5.75;;;1.40;;
21527;SDS011;10925;49.102;-0.370;2023-05-10T00:07:13;7.40;;;1.63;;
21527;SDS011;10925;49.102;-0.370;2023-05-10T00:09:39;6.20;;;1.45;;
21527;SDS011;10925;49.102;-0.370;2023-05-10T00:12:05;3.40;;;1.40;;
21527;SDS011;10925;49.102;-0.370;2023-05-10T00:14:30;6.88;;;1.35;;
21527;SDS011;10925;49.102;-0.370;2023-05-10T00:16:57;6.78;;;1.58;;
21527;SDS011;10925;49.102;-0.370;2023-05-10T00:19:23;4.82;;;1.70;;
21527;SDS011;10925;49.102;-0.370;2023-05-10T00:21:48;8.70;;;1.77;;
21527;SDS011;10925;49.102;-0.370;2023-05-10T00:24:15;7.18;;;1.67;;
21527;SDS011;10925;49.102;-0.370;2023-05-10T00:26:42;6.72;;;1.98;;
21527;SDS011;10925;49.102;-0.370;2023-05-10T00:29:09;5.85;;;1.70;;
21527;SDS011;10925;49.102;-0.370;2023-05-10T00:31:35;8.93;;;1.88;;
21527;SDS011;10925;49.102;-0.370;2023-05-10T00:34:02;5.82;;;1.75;;
21527;SDS011;10925;49.102;-0.370;2023-05-10T00:36:29;5.25;;;1.60;;
21527;SDS011;10925;49.102;-0.370;2023-05-10T00:38:55;5.10;;;1.58;;
21527;SDS011;10925;49.102;-0.370;2023-05-10T00:41:22;6.00;;;1.70;;
21527;SDS011;10925;49.102;-0.370;2023-05-10T00:43:49;5.63;;;1.98;;
21527;SDS011;10925;49.102;-0.370;2023-05-10T00:46:16;8.75;;;2.05;;
21527;SDS011;10925;49.102;-0.370;2023-05-10T00:48:43;12.85;;;2.45;;
21527;SDS011;10925;49.102;-0.370;2023-05-10T00:57:13;10.57;;;2.65;;
21527;SDS011;10925;49.102;-0.370;2023-05-10T00:59:39;18.15;;;3.03;;
21527;SDS011;10925;49.102;-0.370;2023-05-10T01:02:06;15.88;;;3.00;;
21527;SDS011;10925;49.102;-0.370;2023-05-10T01:04:33;10.20;;;2.75;;
21527;SDS011;10925;49.102;-0.370;2023-05-10T01:07:01;20.20;;;3.45;;
21527;SDS011;10925;49.102;-0.370;2023-05-10T01:09:28;18.42;;;3.08;;
21527;SDS011;10925;49.102;-0.370;2023-05-10T01:11:55;15.75;;;2.80;;
21527;SDS011;10925;49.102;-0.370;2023-05-10T01:14:22;10.95;;;2.40;;
21527;SDS011;10925;49.102;-0.370;2023-05-10T01:16:49;9.45;;;2.80;;
21527;SDS011;10925;49.102;-0.370;2023-05-10T01:32:09;14.30;;;2.58;;
21527;SDS011;10925;49.102;-0.370;2023-05-10T01:34:44;12.13;;;2.50;;
21527;SDS011;10925;49.102;-0.370;2023-05-10T01:37:16;13.38;;;3.25;;
21527;SDS011;10925;49.102;-0.370;2023-05-10T01:39:50;11.50;;;2.75;;
21527;SDS011;10925;49.102;-0.370;2023-05-10T01:42:34;19.15;;;2.97;;
21527;SDS011;10925;49.102;-0.370;2023-05-10T01:47:43;15.98;;;3.20;;
21527;SDS011;10925;49.102;-0.370;2023-05-10T01:50:15;17.85;;;3.17;;
21527;SDS011;10925;49.102;-0.370;2023-05-10T01:52:42;23.35;;;3.92;;
21527;SDS011;10925;49.102;-0.370;2023-05-10T01:55:13;30.40;;;3.67;;
21527;SDS011;10925;49.102;-0.370;2023-05-10T01:57:42;22.38;;;3.35;;
21527;SDS011;10925;49.102;-0.370;2023-05-10T02:00:10;27.73;;;4.75;;
21527;SDS011;10925;49.102;-0.370;2023-05-10T02:02:40;19.02;;;3.17;;
21527;SDS011;10925;49.102;-0.370;2023-05-10T02:05:08;24.30;;;3.83;;
21527;SDS011;10925;49.102;-0.370;2023-05-10T02:07:37;22.63;;;4.43;;
21527;SDS011;10925;49.102;-0.370;2023-05-10T02:10:06;20.15;;;3.03;;
21527;SDS011;10925;49.102;-0.370;2023-05-10T02:12:44;24.58;;;3.85;;
21527;SDS011;10925;49.102;-0.370;2023-05-10T02:15:11;24.90;;;3.53;;
21527;SDS011;10925;49.102;-0.370;2023-05-10T02:17:38;25.15;;;3.80;;
21527;SDS011;10925;49.102;-0.370;2023-05-10T02:20:06;21.58;;;3.67;;
21527;SDS011;10925;49.102;-0.370;2023-05-10T02:22:32;32.40;;;4.05;;
21527;SDS011;10925;49.102;-0.370;2023-05-10T02:25:00;18.67;;;4.30;;
21527;SDS011;10925;49.102;-0.370;2023-05-10T02:27:27;29.08;;;3.00;;
21527;SDS011;10925;49.102;-0.370;2023-05-10T02:29:54;27.02;;;4.18;;
21527;SDS011;10925;49.102;-0.370;2023-05-10T02:32:22;25.08;;;3.60;;
21527;SDS011;10925;49.102;-0.370;2023-05-10T02:34:50;33.45;;;4.30;;
21527;SDS011;10925;49.102;-0.370;2023-05-10T02:37:18;31.40;;;4.45;;
21527;SDS011;10925;49.102;-0.370;2023-05-10T02:39:47;35.05;;;4.70;;
21527;SDS011;10925;49.102;-0.370;2023-05-10T02:42:16;43.33;;;5.25;;
21527;SDS011;10925;49.102;-0.370;2023-05-10T02:44:42;32.97;;;3.78;;
21527;SDS011;10925;49.102;-0.370;2023-05-10T02:47:09;34.50;;;4.70;;
21527;SDS011;10925;49.102;-0.370;2023-05-10T02:49:36;36.50;;;4.85;;
21527;SDS011;10925;49.102;-0.370;2023-05-10T02:52:02;30.75;;;4.88;;
21527;SDS011;10925;49.102;-0.370;2023-05-10T02:54:31;30.65;;;4.40;;
21527;SDS011;10925;49.102;-0.370;2023-05-10T02:57:00;38.92;;;4.55;;
21527;SDS011;10925;49.102;-0.370;2023-05-10T02:59:26;36.90;;;6.07;;
21527;SDS011;10925;49.102;-0.370;2023-05-10T03:01:53;29.98;;;4.18;;
21527;SDS011;10925;49.102;-0.370;2023-05-10T03:04:20;26.63;;;4.18;;
21527;SDS011;10925;49.102;-0.370;2023-05-10T03:06:47;34.58;;;6.03;;
21527;SDS011;10925;49.102;-0.370;2023-05-10T03:12:14;34.97;;;5.07;;
21527;SDS011;10925;49.102;-0.370;2023-05-10T03:17:25;35.33;;;5.15;;
21527;SDS011;10925;49.102;-0.370;2023-05-10T03:20:04;40.13;;;5.35;;
21527;SDS011;10925;49.102;-0.370;2023-05-10T03:22:37;27.40;;;4.15;;
21527;SDS011;10925;49.102;-0.370;2023-05-10T03:25:06;35.78;;;5.25;;
21527;SDS011;10925;49.102;-0.370;2023-05-10T03:27:34;40.13;;;4.95;;
21527;SDS011;10925;49.102;-0.370;2023-05-10T03:30:02;42.97;;;5.32;;
21527;SDS011;10925;49.102;-0.370;2023-05-10T03:32:31;34.38;;;4.53;;
21527;SDS011;10925;49.102;-0.370;2023-05-10T03:37:27;30.67;;;4.93;;
21527;SDS011;10925;49.102;-0.370;2023-05-10T03:39:54;30.83;;;5.10;;
21527;SDS011;10925;49.102;-0.370;2023-05-10T03:42:21;32.90;;;4.30;;
21527;SDS011;10925;49.102;-0.370;2023-05-10T03:44:47;29.27;;;4.47;;
21527;SDS011;10925;49.102;-0.370;2023-05-10T03:47:16;33.47;;;9.40;;
21527;SDS011;10925;49.102;-0.370;2023-05-10T03:49:42;36.63;;;5.05;;
21527;SDS011;10925;49.102;-0.370;2023-05-10T03:52:10;34.35;;;4.78;;
21527;SDS011;10925;49.102;-0.370;2023-05-10T03:54:37;34.20;;;5.18;;
21527;SDS011;10925;49.102;-0.370;2023-05-10T03:57:04;33.22;;;5.10;;
21527;SDS011;10925;49.102;-0.370;2023-05-10T03:59:31;33.72;;;5.75;;
21527;SDS011;10925;49.102;-0.370;2023-05-10T04:01:58;32.45;;;5.05;;
21527;SDS011;10925;49.102;-0.370;2023-05-10T04:04:25;37.30;;;5.20;;
21527;SDS011;10925;49.102;-0.370;2023-05-10T04:06:51;33.97;;;4.90;;
21527;SDS011;10925;49.102;-0.370;2023-05-10T04:09:17;36.25;;;5.55;;
21527;SDS011;10925;49.102;-0.370;2023-05-10T04:11:44;28.30;;;4.85;;
21527;SDS011;10925;49.102;-0.370;2023-05-10T04:14:11;28.23;;;4.32;;
21527;SDS011;10925;49.102;-0.370;2023-05-10T04:16:36;40.55;;;5.10;;
21527;SDS011;10925;49.102;-0.370;2023-05-10T04:19:03;30.92;;;5.00;;
21527;SDS011;10925;49.102;-0.370;2023-05-10T04:21:30;27.85;;;4.90;;
21527;SDS011;10925;49.102;-0.370;2023-05-10T04:23:55;33.83;;;5.18;;
21527;SDS011;10925;49.102;-0.370;2023-05-10T04:26:22;36.08;;;5.13;;
21527;SDS011;10925;49.102;-0.370;2023-05-10T04:28:49;26.80;;;4.13;;
21527;SDS011;10925;49.102;-0.370;2023-05-10T04:31:16;23.48;;;4.35;;
21527;SDS011;10925;49.102;-0.370;2023-05-10T04:33:43;30.70;;;5.00;;
21527;SDS011;10925;49.102;-0.370;2023-05-10T04:36:10;25.70;;;4.35;;
21527;SDS011;10925;49.102;-0.370;2023-05-10T04:38:37;27.55;;;4.28;;
21527;SDS011;10925;49.102;-0.370;2023-05-10T04:41:07;30.35;;;4.63;;
21527;SDS011;10925;49.102;-0.370;2023-05-10T04:43:36;26.85;;;4.18;;
21527;SDS011;10925;49.102;-0.370;2023-05-10T04:46:03;33.65;;;4.18;;
21527;SDS011;10925;49.102;-0.370;2023-05-10T04:48:28;32.97;;;5.68;;
21527;SDS011;10925;49.102;-0.370;2023-05-10T04:50:54;36.00;;;4.90;;
21527;SDS011;10925;49.102;-0.370;2023-05-10T04:53:21;35.30;;;6.55;;
21527;SDS011;10925;49.102;-0.370;2023-05-10T04:55:47;42.80;;;5.07;;
21527;SDS011;10925;49.102;-0.370;2023-05-10T04:58:21;33.90;;;5.28;;
21527;SDS011;10925;49.102;-0.370;2023-05-10T05:00:50;31.75;;;4.68;;
21527;SDS011;10925;49.102;-0.370;2023-05-10T05:03:16;32.60;;;4.68;;
21527;SDS011;10925;49.102;-0.370;2023-05-10T05:05:41;34.13;;;4.22;;
21527;SDS011;10925;49.102;-0.370;2023-05-10T05:08:07;28.45;;;4.75;;
21527;SDS011;10925;49.102;-0.370;2023-05-10T05:10:33;23.90;;;4.00;;
21527;SDS011;10925;49.102;-0.370;2023-05-10T05:13:00;34.95;;;4.80;;
21527;SDS011;10925;49.102;-0.370;2023-05-10T05:15:27;31.38;;;5.18;;
21527;SDS011;10925;49.102;-0.370;2023-05-10T05:17:54;23.80;;;4.05;;
21527;SDS011;10925;49.102;-0.370;2023-05-10T05:20:20;27.70;;;4.05;;
21527;SDS011;10925;49.102;-0.370;2023-05-10T05:22:46;29.95;;;4.97;;
21527;SDS011;10925;49.102;-0.370;2023-05-10T05:25:11;30.65;;;4.13;;
21527;SDS011;10925;49.102;-0.370;2023-05-10T05:27:39;28.52;;;4.18;;
21527;SDS011;10925;49.102;-0.370;2023-05-10T05:30:06;29.70;;;5.10;;
21527;SDS011;10925;49.102;-0.370;2023-05-10T05:32:32;37.25;;;6.05;;
21527;SDS011;10925;49.102;-0.370;2023-05-10T05:35:05;27.58;;;4.72;;
21527;SDS011;10925;49.102;-0.370;2023-05-10T05:37:30;35.30;;;4.40;;
21527;SDS011;10925;49.102;-0.370;2023-05-10T05:39:58;26.25;;;4.18;;
21527;SDS011;10925;49.102;-0.370;2023-05-10T05:42:24;35.47;;;5.25;;
21527;SDS011;10925;49.102;-0.370;2023-05-10T05:44:52;25.17;;;4.50;;
21527;SDS011;10925;49.102;-0.370;2023-05-10T05:47:20;39.20;;;4.70;;
21527;SDS011;10925;49.102;-0.370;2023-05-10T05:49:53;36.53;;;5.00;;
21527;SDS011;10925;49.102;-0.370;2023-05-10T05:52:22;31.52;;;4.70;;
21527;SDS011;10925;49.102;-0.370;2023-05-10T05:54:52;32.30;;;4.53;;
21527;SDS011;10925;49.102;-0.370;2023-05-10T05:57:19;30.40;;;4.10;;
21527;SDS011;10925;49.102;-0.370;2023-05-10T05:59:45;27.42;;;5.10;;
21527;SDS011;10925;49.102;-0.370;2023-05-10T06:02:12;28.35;;;4.90;;
21527;SDS011;10925;49.102;-0.370;2023-05-10T06:04:39;36.05;;;4.50;;
21527;SDS011;10925;49.102;-0.370;2023-05-10T06:07:09;26.05;;;4.55;;
21527;SDS011;10925;49.102;-0.370;2023-05-10T06:09:36;25.83;;;4.30;;
21527;SDS011;10925;49.102;-0.370;2023-05-10T06:12:03;23.60;;;4.22;;
21527;SDS011;10925;49.102;-0.370;2023-05-10T06:14:28;23.52;;;4.60;;
21527;SDS011;10925;49.102;-0.370;2023-05-10T06:16:55;28.15;;;4.93;;
21527;SDS011;10925;49.102;-0.370;2023-05-10T06:19:22;24.55;;;4.25;;
21527;SDS011;10925;49.102;-0.370;2023-05-10T06:21:47;31.02;;;4.30;;
21527;SDS011;10925;49.102;-0.370;2023-05-10T06:24:14;28.30;;;5.10;;
21527;SDS011;10925;49.102;-0.370;2023-05-10T06:26:41;21.00;;;3.60;;
21527;SDS011;10925;49.102;-0.370;2023-05-10T06:29:07;20.42;;;3.47;;
21527;SDS011;10925;49.102;-0.370;2023-05-10T06:31:34;20.73;;;2.75;;
21527;SDS011;10925;49.102;-0.370;2023-05-10T06:34:01;20.77;;;3.38;;
21527;SDS011;10925;49.102;-0.370;2023-05-10T06:36:27;19.42;;;3.83;;
21527;SDS011;10925;49.102;-0.370;2023-05-10T06:39:04;22.98;;;3.50;;
21527;SDS011;10925;49.102;-0.370;2023-05-10T06:41:31;27.13;;;4.15;;
21527;SDS011;10925;49.102;-0.370;2023-05-10T06:43:57;20.58;;;4.30;;
21527;SDS011;10925;49.102;-0.370;2023-05-10T06:46:24;25.52;;;3.47;;
21527;SDS011;10925;49.102;-0.370;2023-05-10T06:52:12;23.73;;;4.20;;
21527;SDS011;10925;49.102;-0.370;2023-05-10T06:54:39;25.08;;;4.10;;
21527;SDS011;10925;49.102;-0.370;2023-05-10T06:57:06;23.88;;;3.35;;
21527;SDS011;10925;49.102;-0.370;2023-05-10T06:59:45;16.88;;;3.38;;
21527;SDS011;10925;49.102;-0.370;2023-05-10T07:02:10;27.85;;;4.78;;
21527;SDS011;10925;49.102;-0.370;2023-05-10T07:04:35;19.27;;;3.60;;
21527;SDS011;10925;49.102;-0.370;2023-05-10T07:07:02;21.38;;;4.20;;
21527;SDS011;10925;49.102;-0.370;2023-05-10T07:12:30;24.15;;;4.30;;
21527;SDS011;10925;49.102;-0.370;2023-05-10T07:14:56;21.38;;;3.10;;
21527;SDS011;10925;49.102;-0.370;2023-05-10T07:17:23;27.30;;;4.40;;
21527;SDS011;10925;49.102;-0.370;2023-05-10T07:19:50;23.17;;;5.28;;
21527;SDS011;10925;49.102;-0.370;2023-05-10T07:22:15;22.88;;;4.13;;
21527;SDS011;10925;49.102;-0.370;2023-05-10T07:24:43;16.80;;;3.47;;
21527;SDS011;10925;49.102;-0.370;2023-05-10T07:27:09;19.00;;;3.83;;
21527;SDS011;10925;49.102;-0.370;2023-05-10T07:29:35;18.40;;;4.10;;
21527;SDS011;10925;49.102;-0.370;2023-05-10T07:32:02;26.00;;;3.80;;
21527;SDS011;10925;49.102;-0.370;2023-05-10T07:34:29;19.48;;;3.67;;
21527;SDS011;10925;49.102;-0.370;2023-05-10T07:37:00;21.77;;;3.70;;
21527;SDS011;10925;49.102;-0.370;2023-05-10T07:39:26;15.02;;;3.38;;
21527;SDS011;10925;49.102;-0.370;2023-05-10T07:41:54;16.60;;;3.05;;
21527;SDS011;10925;49.102;-0.370;2023-05-10T07:44:21;20.08;;;4.13;;
21527;SDS011;10925;49.102;-0.370;2023-05-10T07:46:48;20.98;;;3.28;;
21527;SDS011;10925;49.102;-0.370;2023-05-10T07:49:15;19.45;;;3.35;;
21527;SDS011;10925;49.102;-0.370;2023-05-10T07:51:41;19.13;;;3.35;;
21527;SDS011;10925;49.102;-0.370;2023-05-10T07:54:09;14.57;;;3.08;;
21527;SDS011;10925;49.102;-0.370;2023-05-10T07:56:35;18.67;;;3.78;;
21527;SDS011;10925;49.102;-0.370;2023-05-10T07:59:02;20.95;;;3.95;;
21527;SDS011;10925;49.102;-0.370;2023-05-10T08:01:33;21.17;;;4.60;;
21527;SDS011;10925;49.102;-0.370;2023-05-10T08:03:59;17.05;;;4.07;;
21527;SDS011;10925;49.102;-0.370;2023-05-10T08:06:25;22.80;;;4.57;;
21527;SDS011;10925;49.102;-0.370;2023-05-10T08:08:53;20.27;;;3.85;;
21527;SDS011;10925;49.102;-0.370;2023-05-10T08:11:20;26.40;;;3.85;;
21527;SDS011;10925;49.102;-0.370;2023-05-10T08:13:48;18.00;;;3.58;;
21527;SDS011;10925;49.102;-0.370;2023-05-10T08:16:15;19.88;;;3.65;;
21527;SDS011;10925;49.102;-0.370;2023-05-10T08:18:42;15.77;;;3.10;;
21527;SDS011;10925;49.102;-0.370;2023-05-10T08:21:09;13.77;;;2.75;;
21527;SDS011;10925;49.102;-0.370;2023-05-10T08:23:37;15.73;;;3.10;;
21527;SDS011;10925;49.102;-0.370;2023-05-10T08:26:03;15.73;;;3.38;;
21527;SDS011;10925;49.102;-0.370;2023-05-10T08:28:28;19.95;;;3.53;;
21527;SDS011;10925;49.102;-0.370;2023-05-10T08:30:55;10.93;;;2.33;;
21527;SDS011;10925;49.102;-0.370;2023-05-10T08:33:21;16.88;;;3.35;;
21527;SDS011;10925;49.102;-0.370;2023-05-10T08:35:47;14.48;;;3.50;;
21527;SDS011;10925;49.102;-0.370;2023-05-10T08:38:14;23.27;;;3.88;;
21527;SDS011;10925;49.102;-0.370;2023-05-10T08:40:42;14.25;;;3.75;;
21527;SDS011;10925;49.102;-0.370;2023-05-10T08:43:08;13.85;;;3.88;;
21527;SDS011;10925;49.102;-0.370;2023-05-10T08:45:37;11.43;;;2.63;;
21527;SDS011;10925;49.102;-0.370;2023-05-10T08:48:04;17.58;;;4.55;;
21527;SDS011;10925;49.102;-0.370;2023-05-10T08:50:30;17.77;;;3.00;;
21527;SDS011;10925;49.102;-0.370;2023-05-10T08:52:59;18.63;;;3.10;;
21527;SDS011;10925;49.102;-0.370;2023-05-10T08:55:26;18.15;;;3.53;;
21527;SDS011;10925;49.102;-0.370;2023-05-10T08:57:54;20.45;;;3.55;;
21527;SDS011;10925;49.102;-0.370;2023-05-10T09:00:21;17.60;;;2.90;;
21527;SDS011;10925;49.102;-0.370;2023-05-10T09:02:49;19.13;;;3.75;;
21527;SDS011;10925;49.102;-0.370;2023-05-10T09:05:15;22.15;;;3.92;;
21527;SDS011;10925;49.102;-0.370;2023-05-10T09:07:41;16.75;;;4.50;;
21527;SDS011;10925;49.102;-0.370;2023-05-10T09:10:08;17.65;;;3.70;;
21527;SDS011;10925;49.102;-0.370;2023-05-10T09:12:34;13.93;;;3.03;;
21527;SDS011;10925;49.102;-0.370;2023-05-10T09:15:02;22.35;;;3.70;;
21527;SDS011;10925;49.102;-0.370;2023-05-10T09:17:45;20.48;;;4.00;;
21527;SDS011;10925;49.102;-0.370;2023-05-10T09:20:12;12.20;;;2.85;;
21527;SDS011;10925;49.102;-0.370;2023-05-10T09:22:39;17.08;;;3.15;;
21527;SDS011;10925;49.102;-0.370;2023-05-10T09:25:13;15.95;;;2.70;;
21527;SDS011;10925;49.102;-0.370;2023-05-10T09:27:40;18.70;;;3.45;;
21527;SDS011;10925;49.102;-0.370;2023-05-10T09:30:07;15.75;;;3.10;;
21527;SDS011;10925;49.102;-0.370;2023-05-10T09:32:41;14.93;;;3.00;;
21527;SDS011;10925;49.102;-0.370;2023-05-10T09:35:15;17.48;;;2.63;;
21527;SDS011;10925;49.102;-0.370;2023-05-10T09:37:43;15.48;;;2.97;;
21527;SDS011;10925;49.102;-0.370;2023-05-10T09:40:13;15.07;;;3.00;;
21527;SDS011;10925;49.102;-0.370;2023-05-10T09:42:40;18.00;;;2.90;;
21527;SDS011;10925;49.102;-0.370;2023-05-10T09:45:07;10.80;;;2.28;;
21527;SDS011;10925;49.102;-0.370;2023-05-10T09:47:34;8.98;;;2.22;;
21527;SDS011;10925;49.102;-0.370;2023-05-10T09:50:01;10.50;;;1.80;;
21527;SDS011;10925;49.102;-0.370;2023-05-10T09:52:53;13.05;;;2.47;;
21527;SDS011;10925;49.102;-0.370;2023-05-10T09:55:20;10.73;;;2.47;;
21527;SDS011;10925;49.102;-0.370;2023-05-10T09:57:47;14.80;;;2.95;;
21527;SDS011;10925;49.102;-0.370;2023-05-10T10:00:18;12.95;;;2.25;;
21527;SDS011;10925;49.102;-0.370;2023-05-10T10:02:46;14.68;;;3.15;;
21527;SDS011;10925;49.102;-0.370;2023-05-10T10:05:13;13.52;;;2.75;;
21527;SDS011;10925;49.102;-0.370;2023-05-10T10:07:41;17.35;;;2.45;;
21527;SDS011;10925;49.102;-0.370;2023-05-10T10:10:07;13.40;;;2.53;;
21527;SDS011;10925;49.102;-0.370;2023-05-10T10:12:41;13.15;;;2.33;;
21527;SDS011;10925;49.102;-0.370;2023-05-10T10:15:07;14.85;;;2.60;;
21527;SDS011;10925;49.102;-0.370;2023-05-10T10:17:32;11.80;;;2.63;;
21527;SDS011;10925;49.102;-0.370;2023-05-10T10:20:20;12.20;;;2.80;;
21527;SDS011;10925;49.102;-0.370;2023-05-10T10:22:46;15.43;;;3.38;;
21527;SDS011;10925;49.102;-0.370;2023-05-10T10:25:13;13.95;;;2.58;;
21527;SDS011;10925;49.102;-0.370;2023-05-10T10:35:42;17.25;;;3.40;;
21527;SDS011;10925;49.102;-0.370;2023-05-10T10:38:10;17.70;;;3.10;;
21527;SDS011;10925;49.102;-0.370;2023-05-10T10:40:38;12.90;;;2.90;;
21527;SDS011;10925;49.102;-0.370;2023-05-10T10:43:21;16.73;;;3.55;;
21527;SDS011;10925;49.102;-0.370;2023-05-10T10:48:31;14.23;;;2.67;;
21527;SDS011;10925;49.102;-0.370;2023-05-10T10:50:58;15.77;;;2.50;;
21527;SDS011;10925;49.102;-0.370;2023-05-10T10:53:27;15.45;;;3.08;;
21527;SDS011;10925;49.102;-0.370;2023-05-10T10:56:05;13.50;;;3.08;;
21527;SDS011;10925;49.102;-0.370;2023-05-10T10:58:32;16.45;;;3.70;;
21527;SDS011;10925;49.102;-0.370;2023-05-10T11:01:10;16.38;;;3.10;;
21527;SDS011;10925;49.102;-0.370;2023-05-10T11:03:37;13.82;;;3.03;;
21527;SDS011;10925;49.102;-0.370;2023-05-10T11:06:03;15.65;;;2.72;;
21527;SDS011;10925;49.102;-0.370;2023-05-10T11:13:27;16.08;;;3.33;;
21527;SDS011;10925;49.102;-0.370;2023-05-10T11:15:54;9.05;;;2.60;;
21527;SDS011;10925;49.102;-0.370;2023-05-10T11:18:24;15.38;;;3.05;;
21527;SDS011;10925;49.102;-0.370;2023-05-10T11:20:51;15.32;;;3.53;;
21527;SDS011;10925;49.102;-0.370;2023-05-10T11:23:18;12.20;;;2.53;;
21527;SDS011;10925;49.102;-0.370;2023-05-10T11:25:46;14.20;;;2.70;;
21527;SDS011;10925;49.102;-0.370;2023-05-10T11:28:12;11.43;;;2.70;;
21527;SDS011;10925;49.102;-0.370;2023-05-10T11:30:39;14.38;;;2.63;;
21527;SDS011;10925;49.102;-0.370;2023-05-10T11:33:07;10.55;;;2.42;;
21527;SDS011;10925;49.102;-0.370;2023-05-10T11:35:38;18.75;;;3.60;;
21527;SDS011;10925;49.102;-0.370;2023-05-10T11:38:10;11.40;;;2.25;;
21527;SDS011;10925;49.102;-0.370;2023-05-10T11:43:59;16.70;;;2.85;;
21527;SDS011;10925;49.102;-0.370;2023-05-10T11:46:25;12.75;;;2.90;;
21527;SDS011;10925;49.102;-0.370;2023-05-10T11:48:53;11.05;;;3.00;;
21527;SDS011;10925;49.102;-0.370;2023-05-10T11:51:21;10.13;;;2.55;;
21527;SDS011;10925;49.102;-0.370;2023-05-10T11:53:48;10.85;;;2.42;;
21527;SDS011;10925;49.102;-0.370;2023-05-10T11:56:15;11.98;;;2.40;;
21527;SDS011;10925;49.102;-0.370;2023-05-10T11:58:42;10.30;;;1.95;;
21527;SDS011;10925;49.102;-0.370;2023-05-10T12:01:07;4.88;;;1.55;;
21527;SDS011;10925;49.102;-0.370;2023-05-10T12:03:34;8.88;;;1.85;;
21527;SDS011;10925;49.102;-0.370;2023-05-10T12:06:01;11.88;;;2.22;;
21527;SDS011;10925;49.102;-0.370;2023-05-10T12:08:29;7.35;;;1.58;;
21527;SDS011;10925;49.102;-0.370;2023-05-10T12:11:08;7.45;;;2.50;;
21527;SDS011;10925;49.102;-0.370;2023-05-10T12:13:40;8.55;;;1.88;;
21527;SDS011;10925;49.102;-0.370;2023-05-10T12:16:13;9.50;;;2.28;;
21527;SDS011;10925;49.102;-0.370;2023-05-10T12:18:41;14.48;;;2.90;;
21527;SDS011;10925;49.102;-0.370;2023-05-10T12:21:11;13.85;;;3.25;;
21527;SDS011;10925;49.102;-0.370;2023-05-10T12:23:38;12.48;;;2.35;;
21527;SDS011;10925;49.102;-0.370;2023-05-10T12:26:04;9.45;;;2.67;;
21527;SDS011;10925;49.102;-0.370;2023-05-10T12:28:30;6.22;;;1.58;;
21527;SDS011;10925;49.102;-0.370;2023-05-10T12:30:57;9.68;;;1.55;;
21527;SDS011;10925;49.102;-0.370;2023-05-10T12:33:23;7.85;;;2.05;;
21527;SDS011;10925;49.102;-0.370;2023-05-10T12:35:51;10.70;;;1.38;;
21527;SDS011;10925;49.102;-0.370;2023-05-10T12:38:25;8.63;;;1.70;;
21527;SDS011;10925;49.102;-0.370;2023-05-10T12:40:51;11.75;;;2.15;;
21527;SDS011;10925;49.102;-0.370;2023-05-10T12:43:16;6.18;;;1.80;;
21527;SDS011;10925;49.102;-0.370;2023-05-10T12:45:42;16.67;;;2.95;;
21527;SDS011;10925;49.102;-0.370;2023-05-10T12:48:07;13.07;;;2.78;;
21527;SDS011;10925;49.102;-0.370;2023-05-10T12:50:32;7.38;;;2.17;;
21527;SDS011;10925;49.102;-0.370;2023-05-10T12:52:59;14.88;;;2.90;;
21527;SDS011;10925;49.102;-0.370;2023-05-10T12:55:25;13.75;;;2.92;;
21527;SDS011;10925;49.102;-0.370;2023-05-10T12:57:50;14.93;;;2.60;;
21527;SDS011;10925;49.102;-0.370;2023-05-10T13:00:17;11.68;;;3.08;;
21527;SDS011;10925;49.102;-0.370;2023-05-10T13:02:44;13.20;;;3.20;;
21527;SDS011;10925;49.102;-0.370;2023-05-10T13:05:11;13.93;;;2.85;;
21527;SDS011;10925;49.102;-0.370;2023-05-10T13:07:39;13.23;;;2.55;;
21527;SDS011;10925;49.102;-0.370;2023-05-10T13:10:07;14.05;;;2.75;;
21527;SDS011;10925;49.102;-0.370;2023-05-10T13:12:33;13.00;;;3.17;;
21527;SDS011;10925;49.102;-0.370;2023-05-10T13:15:00;12.10;;;3.22;;
21527;SDS011;10925;49.102;-0.370;2023-05-10T13:17:26;17.88;;;3.80;;
21527;SDS011;10925;49.102;-0.370;2023-05-10T13:19:51;13.45;;;3.13;;
21527;SDS011;10925;49.102;-0.370;2023-05-10T13:22:17;11.27;;;2.92;;
21527;SDS011;10925;49.102;-0.370;2023-05-10T13:24:58;20.35;;;3.00;;
21527;SDS011;10925;49.102;-0.370;2023-05-10T13:27:24;14.43;;;2.70;;
21527;SDS011;10925;49.102;-0.370;2023-05-10T13:29:51;12.55;;;3.65;;
21527;SDS011;10925;49.102;-0.370;2023-05-10T13:32:18;11.57;;;2.80;;
21527;SDS011;10925;49.102;-0.370;2023-05-10T13:34:44;12.80;;;2.53;;
21527;SDS011;10925;49.102;-0.370;2023-05-10T13:37:10;9.98;;;2.72;;
21527;SDS011;10925;49.102;-0.370;2023-05-10T13:39:37;13.82;;;3.05;;
21527;SDS011;10925;49.102;-0.370;2023-05-10T13:42:04;14.02;;;2.85;;
21527;SDS011;10925;49.102;-0.370;2023-05-10T13:44:30;15.27;;;3.00;;
21527;SDS011;10925;49.102;-0.370;2023-05-10T13:46:56;11.93;;;2.83;;
21527;SDS011;10925;49.102;-0.370;2023-05-10T13:49:23;16.38;;;2.97;;
21527;SDS011;10925;49.102;-0.370;2023-05-10T13:51:50;14.10;;;3.13;;
21527;SDS011;10925;49.102;-0.370;2023-05-10T13:54:16;9.73;;;2.63;;
21527;SDS011;10925;49.102;-0.370;2023-05-10T13:56:45;12.52;;;1.90;;
21527;SDS011;10925;49.102;-0.370;2023-05-10T13:59:13;10.00;;;1.90;;
21527;SDS011;10925;49.102;-0.370;2023-05-10T14:01:40;10.43;;;1.98;;
21527;SDS011;10925;49.102;-0.370;2023-05-10T14:04:07;9.68;;;1.85;;
21527;SDS011;10925;49.102;-0.370;2023-05-10T14:06:36;11.82;;;2.13;;
21527;SDS011;10925;49.102;-0.370;2023-05-10T14:09:03;8.43;;;2.20;;
21527;SDS011;10925;49.102;-0.370;2023-05-10T14:11:30;11.95;;;2.50;;
21527;SDS011;10925;49.102;-0.370;2023-05-10T14:18:47;14.63;;;2.78;;
21527;SDS011;10925;49.102;-0.370;2023-05-10T14:21:14;12.32;;;2.28;;
21527;SDS011;10925;49.102;-0.370;2023-05-10T14:23:41;9.25;;;2.35;;
21527;SDS011;10925;49.102;-0.370;2023-05-10T14:26:08;15.10;;;2.60;;
21527;SDS011;10925;49.102;-0.370;2023-05-10T14:28:35;14.75;;;2.33;;
21527;SDS011;10925;49.102;-0.370;2023-05-10T14:31:01;17.13;;;3.03;;
21527;SDS011;10925;49.102;-0.370;2023-05-10T14:33:28;16.45;;;3.22;;
21527;SDS011;10925;49.102;-0.370;2023-05-10T14:35:55;10.75;;;2.20;;
21527;SDS011;10925;49.102;-0.370;2023-05-10T14:38:23;12.52;;;2.55;;
21527;SDS011;10925;49.102;-0.370;2023-05-10T14:40:50;15.80;;;2.70;;
21527;SDS011;10925;49.102;-0.370;2023-05-10T14:43:17;16.00;;;3.05;;
21527;SDS011;10925;49.102;-0.370;2023-05-10T14:45:43;12.18;;;3.00;;
21527;SDS011;10925;49.102;-0.370;2023-05-10T14:48:11;13.05;;;3.45;;
21527;SDS011;10925;49.102;-0.370;2023-05-10T14:50:40;13.00;;;2.78;;
21527;SDS011;10925;49.102;-0.370;2023-05-10T14:53:07;14.13;;;2.92;;
21527;SDS011;10925;49.102;-0.370;2023-05-10T14:55:34;15.25;;;3.15;;
21527;SDS011;10925;49.102;-0.370;2023-05-10T14:58:00;13.30;;;2.47;;
21527;SDS011;10925;49.102;-0.370;2023-05-10T15:00:27;18.20;;;2.90;;
21527;SDS011;10925;49.102;-0.370;2023-05-10T15:02:54;17.35;;;3.38;;
21527;SDS011;10925;49.102;-0.370;2023-05-10T15:05:19;16.20;;;3.00;;
21527;SDS011;10925;49.102;-0.370;2023-05-10T15:07:47;12.75;;;2.92;;
21527;SDS011;10925;49.102;-0.370;2023-05-10T15:10:14;11.48;;;2.25;;
21527;SDS011;10925;49.102;-0.370;2023-05-10T15:12:40;18.52;;;3.00;;
21527;SDS011;10925;49.102;-0.370;2023-05-10T15:15:06;12.70;;;2.45;;
21527;SDS011;10925;49.102;-0.370;2023-05-10T15:17:33;9.52;;;2.25;;
21527;SDS011;10925;49.102;-0.370;2023-05-10T15:20:00;11.30;;;2.65;;
21527;SDS011;10925;49.102;-0.370;2023-05-10T15:22:29;9.82;;;2.50;;
21527;SDS011;10925;49.102;-0.370;2023-05-10T15:24:59;11.38;;;2.30;;
21527;SDS011;10925;49.102;-0.370;2023-05-10T15:27:26;6.90;;;2.13;;